createdAt,value
2019-02-11T00:02:06.063Z,4.00
2019-02-11T00:04:36.997Z,3.90
2019-02-11T00:07:06.909Z,3.90
2019-02-11T00:09:36.761Z,3.90
2019-02-11T00:12:06.737Z,3.80
2019-02-11T00:14:36.544Z,3.80
2019-02-11T00:17:06.522Z,3.80
2019-02-11T00:19:36.804Z,3.80
2019-02-11T00:22:07.274Z,3.70
2019-02-11T00:24:38.499Z,3.70
2019-02-11T00:27:08.485Z,3.70
2019-02-11T00:29:38.782Z,3.70
2019-02-11T00:32:09.351Z,3.70
2019-02-11T00:34:40.845Z,3.70
2019-02-11T00:37:10.809Z,3.70
2019-02-11T00:39:40.754Z,3.70
2019-02-11T00:42:10.853Z,3.60
2019-02-11T00:44:41.037Z,3.60
2019-02-11T00:47:11.050Z,3.60
2019-02-11T00:49:41.145Z,3.60
2019-02-11T00:52:11.419Z,3.60
2019-02-11T00:54:41.318Z,3.60
2019-02-11T00:57:11.337Z,3.50
2019-02-11T00:59:41.261Z,3.50
2019-02-11T01:02:11.491Z,3.50
2019-02-11T01:04:41.453Z,3.50
2019-02-11T01:07:11.537Z,3.40
2019-02-11T01:09:41.450Z,3.40
2019-02-11T01:12:11.647Z,3.40
2019-02-11T01:14:41.963Z,3.40
2019-02-11T01:17:12.569Z,3.40
2019-02-11T01:19:43.046Z,3.30
2019-02-11T01:22:13.070Z,3.30
2019-02-11T01:24:42.986Z,3.30
2019-02-11T01:27:13.362Z,3.30
2019-02-11T01:29:43.312Z,3.30
2019-02-11T01:32:13.254Z,3.40
2019-02-11T01:34:43.382Z,3.30
2019-02-11T01:37:13.690Z,3.30
2019-02-11T01:39:43.982Z,3.30
2019-02-11T01:42:14.092Z,3.30
2019-02-11T01:44:43.947Z,3.30
2019-02-11T01:47:14.210Z,3.30
2019-02-11T01:49:45.043Z,3.30
2019-02-11T01:52:15.496Z,3.20
2019-02-11T01:54:45.453Z,3.20
2019-02-11T01:57:15.959Z,3.10
2019-02-11T01:59:45.965Z,3.10
2019-02-11T02:02:16.270Z,3.10
2019-02-11T02:04:46.483Z,3.10
2019-02-11T02:07:16.310Z,3.10
2019-02-11T02:09:46.419Z,3.10
2019-02-11T02:12:16.310Z,3.00
2019-02-11T02:14:46.430Z,3.00
2019-02-11T02:17:16.523Z,3.00
2019-02-11T02:19:46.619Z,3.00
2019-02-11T02:22:16.810Z,3.00
2019-02-11T02:24:47.278Z,3.00
2019-02-11T02:27:17.361Z,3.00
2019-02-11T02:29:47.255Z,2.90
2019-02-11T02:32:17.221Z,2.90
2019-02-11T02:34:47.124Z,2.90
2019-02-11T02:37:17.448Z,2.80
2019-02-11T02:39:47.503Z,2.80
2019-02-11T02:42:17.940Z,2.80
2019-02-11T02:44:47.959Z,2.80
2019-02-11T02:47:18.055Z,2.80
2019-02-11T02:49:48.532Z,2.80
2019-02-11T02:52:18.795Z,2.80
2019-02-11T02:54:48.822Z,2.80
2019-02-11T02:57:19.329Z,2.80
2019-02-11T02:59:49.388Z,2.80
2019-02-11T03:02:19.832Z,2.80
2019-02-11T03:04:49.754Z,2.80
2019-02-11T03:07:19.755Z,2.80
2019-02-11T03:09:49.929Z,2.80
2019-02-11T03:12:20.148Z,2.80
2019-02-11T03:14:50.112Z,2.80
2019-02-11T03:17:20.152Z,2.80
2019-02-11T03:19:50.404Z,2.80
2019-02-11T03:22:20.454Z,2.80
2019-02-11T03:24:51.365Z,2.80
2019-02-11T03:27:21.419Z,2.90
2019-02-11T03:29:51.907Z,2.90
2019-02-11T03:32:22.374Z,2.90
2019-02-11T03:34:52.283Z,2.90
2019-02-11T03:37:22.266Z,2.90
2019-02-11T03:39:52.240Z,2.90
2019-02-11T03:42:22.264Z,2.80
2019-02-11T03:44:52.514Z,2.90
2019-02-11T03:47:23.066Z,2.90
2019-02-11T03:49:52.963Z,2.90
2019-02-11T03:52:23.268Z,2.90
2019-02-11T03:54:53.377Z,2.90
2019-02-11T03:57:23.543Z,2.90
2019-02-11T03:59:53.485Z,2.80
2019-02-11T04:02:23.481Z,2.80
2019-02-11T04:04:53.414Z,2.70
2019-02-11T04:07:23.888Z,2.70
2019-02-11T04:09:53.900Z,2.70
2019-02-11T04:12:23.948Z,2.70
2019-02-11T04:14:54.046Z,2.60
2019-02-11T04:17:24.358Z,2.60
2019-02-11T04:19:54.519Z,2.70
2019-02-11T04:22:24.516Z,2.70
2019-02-11T04:24:56.327Z,2.70
2019-02-11T04:27:26.177Z,2.80
2019-02-11T04:29:56.120Z,2.80
2019-02-11T04:32:26.150Z,2.80
2019-02-11T04:34:56.097Z,2.80
2019-02-11T04:37:26.110Z,2.80
2019-02-11T04:39:56.299Z,2.80
2019-02-11T04:42:26.649Z,2.90
2019-02-11T04:44:56.802Z,2.90
2019-02-11T04:47:27.053Z,3.00
2019-02-11T04:49:57.255Z,3.00
2019-02-11T04:52:27.447Z,3.00
2019-02-11T04:54:57.331Z,3.00
2019-02-11T04:57:27.604Z,2.90
2019-02-11T04:59:57.801Z,2.90
2019-02-11T05:02:27.778Z,2.90
2019-02-11T05:04:58.014Z,3.00
2019-02-11T05:07:28.315Z,2.90
2019-02-11T05:09:58.848Z,2.90
2019-02-11T05:12:29.264Z,2.80
2019-02-11T05:14:59.583Z,2.70
2019-02-11T05:17:29.579Z,2.60
2019-02-11T05:19:59.815Z,2.60
2019-02-11T05:22:30.294Z,2.60
2019-02-11T05:25:00.648Z,2.60
2019-02-11T05:27:31.055Z,2.70
2019-02-11T05:30:01.284Z,2.70
2019-02-11T05:32:31.253Z,2.80
2019-02-11T05:35:01.663Z,2.80
2019-02-11T05:37:32.136Z,2.80
2019-02-11T05:40:02.707Z,2.90
2019-02-11T05:42:32.812Z,2.90
2019-02-11T05:45:12.154Z,2.90
2019-02-11T05:47:42.794Z,2.90
2019-02-11T05:50:12.974Z,2.80
2019-02-11T05:52:43.203Z,2.90
2019-02-11T05:55:13.482Z,2.90
2019-02-11T05:57:43.766Z,2.90
2019-02-11T06:00:15.680Z,2.90
2019-02-11T06:02:46.024Z,3.00
2019-02-11T06:05:16.030Z,3.00
2019-02-11T06:07:46.722Z,3.00
2019-02-11T06:10:16.667Z,3.10
2019-02-11T06:12:46.617Z,3.10
2019-02-11T06:15:16.606Z,3.10
2019-02-11T06:17:46.533Z,3.10
2019-02-11T06:20:16.667Z,3.20
2019-02-11T06:22:46.825Z,3.10
2019-02-11T06:25:17.108Z,3.10
2019-02-11T06:27:47.579Z,3.00
2019-02-11T06:30:17.813Z,3.00
2019-02-11T06:32:48.178Z,3.00
2019-02-11T06:35:18.147Z,2.90
2019-02-11T06:37:48.347Z,2.90
2019-02-11T06:40:18.424Z,2.80
2019-02-11T06:42:48.439Z,2.90
2019-02-11T06:45:18.681Z,2.90
2019-02-11T06:47:48.612Z,2.80
2019-02-11T06:50:18.767Z,2.80
2019-02-11T06:52:48.770Z,2.80
2019-02-11T06:55:18.826Z,2.80
2019-02-11T06:57:49.022Z,2.80
2019-02-11T07:00:19.150Z,2.80
2019-02-11T07:02:49.423Z,2.90
2019-02-11T07:05:19.922Z,3.00
2019-02-11T07:07:50.109Z,3.20
2019-02-11T07:10:20.380Z,3.30
2019-02-11T07:12:50.874Z,3.40
2019-02-11T07:15:22.398Z,3.40
2019-02-11T07:17:53.248Z,3.40
2019-02-11T07:20:23.797Z,3.40
2019-02-11T07:22:54.132Z,3.40
2019-02-11T07:25:24.696Z,3.50
2019-02-11T07:27:54.886Z,3.70
2019-02-11T07:30:25.492Z,4.10
2019-02-11T07:32:55.743Z,4.70
2019-02-11T07:35:26.202Z,5.30
2019-02-11T07:37:56.251Z,6.10
2019-02-11T07:40:28.519Z,6.70
2019-02-11T07:43:03.606Z,7.10
2019-02-11T07:45:42.367Z,7.20
2019-02-11T07:48:12.426Z,7.10
2019-02-11T07:50:43.173Z,7.20
2019-02-11T07:53:13.241Z,7.20
2019-02-11T07:55:44.148Z,7.10
2019-02-11T07:58:14.402Z,6.90
2019-02-11T08:00:44.424Z,6.50
2019-02-11T08:03:14.721Z,6.30
2019-02-11T08:05:44.877Z,6.00
2019-02-11T08:08:15.344Z,5.90
2019-02-11T08:10:45.430Z,5.90
2019-02-11T08:13:15.378Z,5.90
2019-02-11T08:15:45.443Z,5.80
2019-02-11T08:18:15.740Z,5.70
2019-02-11T08:20:46.178Z,5.60
2019-02-11T08:23:16.300Z,5.60
2019-02-11T08:25:46.221Z,5.70
2019-02-11T08:28:19.596Z,5.70
2019-02-11T08:30:48.427Z,5.70
2019-02-11T08:33:18.852Z,5.90
2019-02-11T08:35:48.965Z,6.20
2019-02-11T08:38:19.025Z,6.40
2019-02-11T08:40:49.821Z,6.70
2019-02-11T08:43:19.898Z,6.90
2019-02-11T08:45:50.086Z,6.90
2019-02-11T08:48:20.268Z,6.90
2019-02-11T08:50:50.512Z,6.90
2019-02-11T08:53:21.112Z,7.30
2019-02-11T08:55:51.733Z,7.70
2019-02-11T08:58:22.053Z,8.20
2019-02-11T09:00:52.307Z,8.70
2019-02-11T09:03:22.419Z,9.10
2019-02-11T09:05:52.518Z,9.10
2019-02-11T09:08:22.469Z,9.20
2019-02-11T09:10:52.790Z,9.20
2019-02-11T09:13:23.258Z,9.10
2019-02-11T09:15:55.419Z,8.90
2019-02-11T09:18:25.488Z,8.70
2019-02-11T09:20:56.074Z,8.60
2019-02-11T09:23:26.429Z,8.80
2019-02-11T09:25:56.741Z,8.90
2019-02-11T09:28:27.002Z,8.80
2019-02-11T09:30:57.427Z,8.80
2019-02-11T09:33:28.046Z,8.80
2019-02-11T09:35:58.204Z,8.80
2019-02-11T09:38:28.083Z,8.90
2019-02-11T09:40:58.400Z,8.90
2019-02-11T09:43:28.579Z,8.90
2019-02-11T09:46:03.981Z,8.80
2019-02-11T09:48:30.541Z,8.70
2019-02-11T09:51:01.094Z,8.50
2019-02-11T09:53:31.472Z,8.10
2019-02-11T09:56:01.894Z,7.70
2019-02-11T09:58:32.112Z,7.40
2019-02-11T10:01:02.232Z,7.70
2019-02-11T10:03:32.227Z,9.30
2019-02-11T10:06:02.575Z,10.60
2019-02-11T10:08:32.601Z,11.10
2019-02-11T10:11:02.929Z,10.80
2019-02-11T10:13:33.121Z,10.40
2019-02-11T10:16:03.346Z,10.20
2019-02-11T10:18:33.410Z,10.30
2019-02-11T10:21:03.994Z,10.70
2019-02-11T10:23:34.306Z,11.30
2019-02-11T10:26:04.487Z,12.00
2019-02-11T10:28:35.286Z,12.80
2019-02-11T10:31:05.561Z,13.50
2019-02-11T10:33:35.624Z,13.50
2019-02-11T10:36:05.842Z,14.20
2019-02-11T10:38:36.757Z,14.80
2019-02-11T10:41:06.839Z,15.30
2019-02-11T10:43:37.023Z,15.60
2019-02-11T10:46:07.009Z,15.90
2019-02-11T10:48:37.708Z,16.10
2019-02-11T10:51:09.272Z,16.10
2019-02-11T10:53:39.330Z,15.40
2019-02-11T10:56:09.789Z,14.90
2019-02-11T10:58:40.099Z,14.10
2019-02-11T11:01:10.223Z,13.60
2019-02-11T11:03:40.881Z,13.80
2019-02-11T11:06:11.037Z,13.80
2019-02-11T11:08:41.225Z,13.90
2019-02-11T11:11:12.211Z,13.80
2019-02-11T11:13:42.846Z,13.50
2019-02-11T11:16:13.206Z,13.00
2019-02-11T11:18:44.474Z,12.80
2019-02-11T11:21:14.646Z,12.70
2019-02-11T11:23:45.006Z,12.50
2019-02-11T11:26:15.244Z,12.40
2019-02-11T11:28:45.726Z,12.10
2019-02-11T11:31:15.862Z,11.60
2019-02-11T11:33:47.484Z,11.20
2019-02-11T11:36:18.085Z,10.80
2019-02-11T11:38:48.058Z,10.60
2019-02-11T11:41:18.493Z,10.30
2019-02-11T11:43:48.967Z,10.20
2019-02-11T11:46:19.235Z,10.20
2019-02-11T11:48:49.392Z,10.60
2019-02-11T11:51:19.576Z,11.10
2019-02-11T11:53:49.675Z,11.80
2019-02-11T11:56:19.637Z,11.90
2019-02-11T11:58:49.948Z,11.90
2019-02-11T12:01:24.744Z,11.90
2019-02-11T12:03:54.932Z,11.90
2019-02-11T12:06:25.914Z,11.80
2019-02-11T12:09:00.882Z,11.90
2019-02-11T12:11:33.299Z,11.70
2019-02-11T12:14:08.347Z,11.50
2019-02-11T12:16:55.343Z,11.30
2019-02-11T12:19:21.306Z,11.10
2019-02-11T12:21:51.508Z,10.60
2019-02-11T12:24:21.744Z,10.10
2019-02-11T12:26:52.548Z,9.70
2019-02-11T12:29:22.658Z,9.30
2019-02-11T12:31:52.920Z,9.20
2019-02-11T12:34:23.045Z,9.10
2019-02-11T12:36:54.476Z,9.00
2019-02-11T12:39:24.749Z,9.10
2019-02-11T12:41:55.106Z,9.50
2019-02-11T12:44:25.293Z,9.90
2019-02-11T12:47:12.756Z,9.80
2019-02-11T12:49:27.274Z,9.70
2019-02-11T12:51:57.226Z,9.70
2019-02-11T12:54:27.604Z,9.70
2019-02-11T12:56:57.576Z,9.80
2019-02-11T12:59:27.612Z,9.80
2019-02-11T13:01:57.980Z,9.60
2019-02-11T13:04:28.239Z,9.50
2019-02-11T13:06:58.248Z,9.50
2019-02-11T13:09:28.775Z,9.50
2019-02-11T13:11:58.965Z,9.50
2019-02-11T13:14:29.061Z,9.40
2019-02-11T13:16:59.183Z,9.20
2019-02-11T13:19:29.315Z,8.90
2019-02-11T13:21:59.300Z,8.70
2019-02-11T13:24:29.843Z,8.50
2019-02-11T13:26:59.940Z,8.30
2019-02-11T13:29:30.181Z,8.30
2019-02-11T13:32:00.184Z,8.30
2019-02-11T13:34:30.311Z,8.30
2019-02-11T13:37:00.359Z,8.20
2019-02-11T13:39:30.410Z,8.20
2019-02-11T13:42:00.690Z,8.20
2019-02-11T13:44:30.939Z,8.10
2019-02-11T13:47:01.166Z,8.10
2019-02-11T13:49:31.741Z,8.00
2019-02-11T13:52:01.943Z,8.00
2019-02-11T13:54:31.984Z,8.00
2019-02-11T13:57:02.334Z,8.00
2019-02-11T13:59:33.043Z,8.20
2019-02-11T14:02:03.770Z,8.30
2019-02-11T14:04:34.277Z,8.40
2019-02-11T14:07:04.784Z,8.40
2019-02-11T14:09:35.621Z,8.50
2019-02-11T14:12:06.313Z,8.40
2019-02-11T14:14:36.502Z,8.40
2019-02-11T14:17:06.847Z,8.40
2019-02-11T14:19:37.329Z,8.40
2019-02-11T14:22:07.658Z,8.60
2019-02-11T14:24:38.504Z,8.70
2019-02-11T14:27:08.553Z,8.80
2019-02-11T14:29:38.524Z,8.90
2019-02-11T14:32:08.589Z,8.90
2019-02-11T14:34:38.706Z,8.80
2019-02-11T14:37:08.799Z,8.70
2019-02-11T14:39:39.411Z,8.60
2019-02-11T14:42:09.352Z,8.50
2019-02-11T14:44:39.833Z,8.50
2019-02-11T14:47:10.427Z,8.50
2019-02-11T14:49:40.543Z,8.50
2019-02-11T14:52:10.618Z,8.40
2019-02-11T14:54:41.009Z,8.30
2019-02-11T14:57:11.516Z,8.30
2019-02-11T14:59:41.934Z,8.20
2019-02-11T15:02:12.225Z,8.10
2019-02-11T15:04:42.794Z,8.00
2019-02-11T15:07:12.807Z,7.90
2019-02-11T15:09:43.633Z,7.80
2019-02-11T15:12:13.983Z,7.70
2019-02-11T15:14:43.917Z,7.50
2019-02-11T15:17:14.148Z,7.40
2019-02-11T15:19:44.359Z,7.30
2019-02-11T15:22:14.627Z,7.20
2019-02-11T15:24:44.896Z,7.10
2019-02-11T15:27:17.242Z,7.00
2019-02-11T15:29:47.168Z,6.90
2019-02-11T15:32:17.167Z,6.70
2019-02-11T15:34:47.262Z,6.50
2019-02-11T15:37:17.366Z,6.30
2019-02-11T15:39:48.150Z,6.00
2019-02-11T15:42:18.185Z,5.90
2019-02-11T15:44:49.236Z,5.80
2019-02-11T15:47:19.271Z,5.70
2019-02-11T15:49:49.205Z,5.70
2019-02-11T15:52:19.994Z,5.60
2019-02-11T15:54:50.226Z,5.50
2019-02-11T15:57:20.648Z,5.50
2019-02-11T15:59:51.828Z,5.50
2019-02-11T16:02:22.673Z,5.50
2019-02-11T16:04:52.727Z,5.50
2019-02-11T16:07:23.092Z,5.60
2019-02-11T16:09:53.041Z,5.60
2019-02-11T16:12:23.071Z,5.60
2019-02-11T16:14:53.895Z,5.60
2019-02-11T16:17:24.384Z,5.60
2019-02-11T16:19:54.647Z,5.60
2019-02-11T16:22:25.076Z,5.60
2019-02-11T16:24:55.058Z,5.60
2019-02-11T16:27:28.661Z,5.50
2019-02-11T16:29:59.830Z,5.40
2019-02-11T16:32:29.877Z,5.40
2019-02-11T16:34:59.804Z,5.30
2019-02-11T16:37:29.978Z,5.30
2019-02-11T16:40:00.018Z,5.20
2019-02-11T16:42:30.421Z,5.20
2019-02-11T16:45:00.319Z,5.20
2019-02-11T16:47:30.460Z,5.10
2019-02-11T16:50:00.741Z,5.00
2019-02-11T16:52:30.851Z,5.00
2019-02-11T16:55:01.280Z,5.00
2019-02-11T16:57:31.205Z,5.00
2019-02-11T17:00:01.764Z,5.00
2019-02-11T17:02:31.718Z,4.90
2019-02-11T17:05:01.802Z,4.90
2019-02-11T17:07:31.722Z,4.80
2019-02-11T17:10:01.776Z,4.70
2019-02-11T17:12:31.788Z,4.50
2019-02-11T17:15:01.898Z,4.30
2019-02-11T17:17:31.868Z,4.10
2019-02-11T17:20:02.194Z,3.90
2019-02-11T17:22:32.510Z,3.80
2019-02-11T17:25:04.048Z,3.60
2019-02-11T17:27:46.336Z,3.60
2019-02-11T17:30:21.814Z,3.60
2019-02-11T17:32:52.088Z,3.60
2019-02-11T17:35:22.386Z,3.60
2019-02-11T17:37:52.468Z,3.60
2019-02-11T17:40:22.621Z,3.50
2019-02-11T17:42:52.924Z,3.60
2019-02-11T17:45:24.584Z,3.50
2019-02-11T17:47:54.694Z,3.50
2019-02-11T17:50:24.874Z,3.40
2019-02-11T17:52:55.557Z,3.20
2019-02-11T17:55:25.726Z,3.10
2019-02-11T17:57:56.112Z,3.00
2019-02-11T18:00:33.983Z,3.00
2019-02-11T18:03:04.676Z,3.00
2019-02-11T18:05:34.940Z,3.00
2019-02-11T18:08:05.856Z,3.00
2019-02-11T18:10:35.961Z,3.10
2019-02-11T18:13:07.051Z,3.10
2019-02-11T18:15:38.217Z,3.10
2019-02-11T18:18:08.455Z,3.10
2019-02-11T18:20:38.376Z,3.00
2019-02-11T18:23:08.913Z,2.90
2019-02-11T18:25:39.202Z,2.80
2019-02-11T18:28:09.277Z,2.70
2019-02-11T18:30:39.475Z,2.50
2019-02-11T18:33:09.606Z,2.40
2019-02-11T18:35:39.816Z,2.30
2019-02-11T18:38:10.087Z,2.20
2019-02-11T18:40:40.062Z,2.10
2019-02-11T18:43:11.242Z,2.00
2019-02-11T18:45:41.417Z,1.90
2019-02-11T18:48:12.333Z,1.90
2019-02-11T18:50:42.515Z,1.80
2019-02-11T18:53:13.415Z,1.80
2019-02-11T18:55:43.501Z,1.90
2019-02-11T18:58:14.021Z,1.80
2019-02-11T19:00:44.202Z,1.80
2019-02-11T19:03:14.868Z,1.80
2019-02-11T19:05:45.099Z,1.80
2019-02-11T19:08:15.056Z,1.80
2019-02-11T19:10:45.155Z,1.80
2019-02-11T19:13:15.526Z,1.80
2019-02-11T19:15:45.795Z,1.80
2019-02-11T19:18:16.088Z,1.80
2019-02-11T19:20:46.473Z,1.90
2019-02-11T19:23:16.649Z,1.90
2019-02-11T19:25:46.785Z,2.00
2019-02-11T19:28:16.897Z,2.00
2019-02-11T19:30:46.992Z,2.00
2019-02-11T19:33:17.214Z,2.10
2019-02-11T19:35:47.475Z,2.20
2019-02-11T19:38:18.010Z,2.30
2019-02-11T19:40:48.223Z,2.30
2019-02-11T19:43:18.786Z,2.30
2019-02-11T19:45:48.906Z,2.30
2019-02-11T19:48:19.249Z,2.20
2019-02-11T19:50:49.605Z,2.20
2019-02-11T19:53:20.383Z,2.10
2019-02-11T19:55:50.590Z,2.10
2019-02-11T19:58:21.379Z,2.00
2019-02-11T20:00:51.698Z,2.00
2019-02-11T20:03:22.088Z,2.10
2019-02-11T20:05:52.210Z,2.20
2019-02-11T20:08:22.622Z,2.20
2019-02-11T20:10:53.136Z,2.20
2019-02-11T20:13:23.279Z,2.20
2019-02-11T20:15:53.379Z,2.20
2019-02-11T20:18:24.430Z,2.10
2019-02-11T20:20:55.609Z,2.00
2019-02-11T20:23:26.017Z,2.00
2019-02-11T20:25:56.213Z,2.00
2019-02-11T20:28:26.346Z,1.90
2019-02-11T20:30:56.975Z,1.90
2019-02-11T20:33:27.109Z,1.90
2019-02-11T20:35:57.262Z,1.80
2019-02-11T20:38:27.650Z,1.80
2019-02-11T20:40:57.765Z,1.70
2019-02-11T20:43:27.878Z,1.70
2019-02-11T20:45:58.073Z,1.60
2019-02-11T20:48:28.472Z,1.60
2019-02-11T20:50:58.580Z,1.60
2019-02-11T20:53:28.784Z,1.60
2019-02-11T20:55:59.140Z,1.50
2019-02-11T20:58:29.255Z,1.50
2019-02-11T21:00:59.380Z,1.40
2019-02-11T21:03:29.815Z,1.40
2019-02-11T21:05:59.934Z,1.40
2019-02-11T21:08:31.871Z,1.40
2019-02-11T21:11:02.326Z,1.30
2019-02-11T21:13:32.450Z,1.30
2019-02-11T21:16:02.836Z,1.30
2019-02-11T21:18:33.344Z,1.30
2019-02-11T21:21:03.563Z,1.40
2019-02-11T21:23:34.357Z,1.40
2019-02-11T21:26:04.511Z,1.40
2019-02-11T21:28:34.769Z,1.40
2019-02-11T21:31:05.139Z,1.40
2019-02-11T21:33:35.681Z,1.40
2019-02-11T21:36:06.208Z,1.50
2019-02-11T21:38:36.705Z,1.60
2019-02-11T21:41:07.038Z,1.70
2019-02-11T21:43:37.202Z,1.70
2019-02-11T21:46:07.311Z,1.70
2019-02-11T21:48:37.386Z,1.70
2019-02-11T21:51:07.584Z,1.70
2019-02-11T21:53:37.827Z,1.70
2019-02-11T21:56:08.025Z,1.60
2019-02-11T21:58:38.778Z,1.70
2019-02-11T22:01:09.436Z,1.60
2019-02-11T22:03:39.447Z,1.60
2019-02-11T22:06:09.593Z,1.60
2019-02-11T22:08:39.724Z,1.60
2019-02-11T22:11:09.722Z,1.60
2019-02-11T22:13:39.832Z,1.50
2019-02-11T22:16:10.049Z,1.50
2019-02-11T22:18:40.165Z,1.50
2019-02-11T22:21:10.328Z,1.60
2019-02-11T22:23:40.642Z,1.60
2019-02-11T22:26:10.712Z,1.60
2019-02-11T22:28:40.697Z,1.60
2019-02-11T22:31:11.064Z,1.50
2019-02-11T22:33:41.394Z,1.40
2019-02-11T22:36:11.408Z,1.40
2019-02-11T22:38:41.613Z,1.40
2019-02-11T22:41:11.777Z,1.40
2019-02-11T22:43:41.771Z,1.30
2019-02-11T22:46:11.744Z,1.30
2019-02-11T22:48:42.195Z,1.20
2019-02-11T22:51:12.290Z,1.20
2019-02-11T22:53:43.395Z,1.20
2019-02-11T22:56:13.351Z,1.20
2019-02-11T22:58:43.567Z,1.30
2019-02-11T23:01:13.821Z,1.30
2019-02-11T23:03:43.996Z,1.20
2019-02-11T23:06:14.154Z,1.20
2019-02-11T23:08:46.968Z,1.10
2019-02-11T23:11:17.256Z,1.20
2019-02-11T23:13:47.871Z,1.20
2019-02-11T23:16:18.080Z,1.30
2019-02-11T23:18:48.062Z,1.50
2019-02-11T23:21:18.122Z,1.60
2019-02-11T23:23:48.739Z,1.80
2019-02-11T23:26:18.791Z,1.90
2019-02-11T23:28:49.515Z,2.00
2019-02-11T23:31:19.947Z,2.10
2019-02-11T23:33:49.921Z,2.20
2019-02-11T23:36:20.198Z,2.30
2019-02-11T23:38:50.777Z,2.30
2019-02-11T23:41:21.463Z,2.40
2019-02-11T23:43:51.798Z,2.40
2019-02-11T23:46:21.850Z,2.50
2019-02-11T23:48:52.184Z,2.60
2019-02-11T23:51:23.106Z,2.60
2019-02-11T23:53:53.323Z,2.60
2019-02-11T23:56:23.506Z,2.60
2019-02-11T23:58:53.947Z,2.60
